Time;durP1;ratioP1;P1;durP2;ratioP2;P2;SDS_P1;SDS_P2;PMS_P1;PMS_P2;Temp;Humidity;BMP_temperature;BMP_pressure;BME280_temperature;BME280_humidity;BME280_pressure;Samples;Min_cycle;Max_cycle;Signal;HPM_P1;HPM_P2
2023/12/19 00:01:43;;;;;;;32.90;12.77;;;;;;;3.40;100.00;102360.66;5009925;28;20417;-70
2023/12/19 00:04:09;;;;;;;24.60;11.38;;;;;;;3.46;100.00;102359.56;5014122;28;20045;-70
2023/12/19 00:06:34;;;;;;;28.73;12.18;;;;;;;3.44;100.00;102351.94;5006579;28;20038;-71
2023/12/19 00:09:00;;;;;;;24.58;11.45;;;;;;;3.33;100.00;102354.16;5005895;28;20428;-70
2023/12/19 00:11:26;;;;;;;34.85;13.20;;;;;;;3.47;100.00;102356.09;5002490;28;20038;-71
2023/12/19 00:13:51;;;;;;;26.25;11.50;;;;;;;3.49;100.00;102356.84;5007952;28;20412;-71
2023/12/19 00:16:17;;;;;;;30.65;11.60;;;;;;;3.46;100.00;102360.38;5008304;28;20045;-70
2023/12/19 00:18:42;;;;;;;25.52;10.88;;;;;;;3.37;100.00;102349.72;5023429;28;20037;-70
2023/12/19 00:21:08;;;;;;;25.20;11.57;;;;;;;3.42;100.00;102345.22;5009123;28;20436;-71
2023/12/19 00:23:33;;;;;;;25.45;11.98;;;;;;;3.31;100.00;102356.81;5008902;28;20086;-71
2023/12/19 00:25:59;;;;;;;22.05;11.10;;;;;;;3.38;100.00;102359.09;5008670;28;20466;-70
2023/12/19 00:28:27;;;;;;;26.35;10.98;;;;;;;3.40;100.00;102349.59;5010253;28;20100;-70
2023/12/19 00:30:55;;;;;;;24.10;11.75;;;;;;;3.36;100.00;102337.81;5007196;28;20146;-70
2023/12/19 00:33:21;;;;;;;28.58;10.93;;;;;;;3.33;100.00;102330.25;4993724;28;20104;-70
2023/12/19 00:35:47;;;;;;;24.77;11.20;;;;;;;3.37;100.00;102330.06;5008865;28;20054;-70
2023/12/19 00:38:12;;;;;;;26.55;12.02;;;;;;;3.36;100.00;102330.13;5007854;28;20030;-70
2023/12/19 00:40:38;;;;;;;26.80;11.10;;;;;;;3.44;100.00;102330.59;4997213;28;20618;-70
2023/12/19 00:43:03;;;;;;;30.30;12.07;;;;;;;3.41;100.00;102334.13;5010342;28;20114;-70
2023/12/19 00:45:28;;;;;;;20.38;9.60;;;;;;;3.44;100.00;102325.44;5010710;28;20046;-70
2023/12/19 00:47:54;;;;;;;25.67;11.10;;;;;;;3.39;100.00;102317.13;5011258;28;20038;-70
2023/12/19 00:50:19;;;;;;;21.77;10.95;;;;;;;3.47;100.00;102310.75;5011191;28;20033;-70
2023/12/19 00:52:45;;;;;;;23.25;10.68;;;;;;;3.42;100.00;102311.88;5014471;28;20050;-70
2023/12/19 00:55:10;;;;;;;22.23;10.90;;;;;;;3.45;100.00;102316.88;5004543;28;20113;-71
2023/12/19 00:57:36;;;;;;;27.20;11.75;;;;;;;3.37;100.00;102308.69;4992479;28;20057;-70
2023/12/19 01:00:02;;;;;;;26.70;11.50;;;;;;;3.37;100.00;102303.56;5007625;28;20054;-70
2023/12/19 01:02:29;;;;;;;29.20;11.85;;;;;;;3.37;100.00;102314.66;5013554;28;20097;-70
2023/12/19 01:04:57;;;;;;;22.90;10.23;;;;;;;3.48;100.00;102293.63;5006745;28;20500;-70
2023/12/19 01:07:25;;;;;;;25.48;12.05;;;;;;;3.37;100.00;102308.69;5009684;28;20076;-70
2023/12/19 01:09:51;;;;;;;25.25;12.20;;;;;;;3.35;100.00;102307.94;5009280;28;20045;-70
2023/12/19 01:12:18;;;;;;;27.52;12.63;;;;;;;3.33;100.00;102296.91;5011954;28;20022;-70
2023/12/19 01:14:44;;;;;;;27.27;11.90;;;;;;;3.35;100.00;102284.84;4991232;28;21354;-70
2023/12/19 01:17:09;;;;;;;24.52;11.70;;;;;;;3.34;100.00;102285.78;5012051;28;20029;-70
2023/12/19 01:19:35;;;;;;;29.08;12.00;;;;;;;3.35;100.00;102280.53;5008415;28;20501;-70
2023/12/19 01:22:00;;;;;;;25.42;10.82;;;;;;;3.44;100.00;102271.59;5001263;28;20049;-70
2023/12/19 01:24:26;;;;;;;32.53;11.60;;;;;;;3.44;100.00;102266.47;5005994;28;20022;-70
2023/12/19 01:26:52;;;;;;;24.27;10.93;;;;;;;3.43;100.00;102268.22;5008609;28;20044;-72
2023/12/19 01:29:18;;;;;;;25.30;12.13;;;;;;;3.49;100.00;102265.34;5013776;28;20021;-71
2023/12/19 01:31:43;;;;;;;31.23;11.88;;;;;;;3.47;100.00;102264.59;5008941;28;20029;-70
2023/12/19 01:34:09;;;;;;;29.83;12.32;;;;;;;3.44;100.00;102276.72;5006716;28;20029;-70
2023/12/19 01:36:37;;;;;;;29.08;11.80;;;;;;;3.54;100.00;102267.66;5003044;28;20030;-71
2023/12/19 01:39:03;;;;;;;25.40;11.38;;;;;;;3.50;100.00;102273.84;4985927;28;20038;-70
2023/12/19 01:41:29;;;;;;;25.10;12.10;;;;;;;3.59;100.00;102267.47;5015555;28;20112;-70
2023/12/19 01:43:59;;;;;;;25.02;11.80;;;;;;;3.46;100.00;102270.59;5013495;28;20037;-70
2023/12/19 01:46:24;;;;;;;26.40;12.13;;;;;;;3.44;100.00;102267.28;5004414;28;20069;-71
2023/12/19 01:48:49;;;;;;;27.67;11.70;;;;;;;3.49;100.00;102272.22;4992549;28;20036;-70
2023/12/19 01:51:15;;;;;;;29.33;12.13;;;;;;;3.58;100.00;102260.66;5007268;28;20104;-71
2023/12/19 01:53:43;;;;;;;29.80;12.85;;;;;;;3.55;100.00;102261.66;4990952;28;20480;-70
2023/12/19 01:56:11;;;;;;;28.65;12.05;;;;;;;3.59;100.00;102258.03;5002285;28;20038;-70
2023/12/19 01:58:37;;;;;;;27.67;12.10;;;;;;;3.62;100.00;102250.19;4999862;28;20038;-70
2023/12/19 02:01:05;;;;;;;28.90;12.02;;;;;;;3.62;100.00;102249.38;5003596;28;20052;-70
2023/12/19 02:03:32;;;;;;;27.27;12.80;;;;;;;3.58;100.00;102242.69;5009257;28;20104;-71
2023/12/19 02:05:59;;;;;;;32.05;13.55;;;;;;;3.61;100.00;102247.69;5008538;28;20080;-71
2023/12/19 02:08:25;;;;;;;30.38;12.48;;;;;;;3.67;100.00;102249.94;5004847;28;20034;-70
2023/12/19 02:10:51;;;;;;;30.98;13.07;;;;;;;3.65;100.00;102256.91;5014195;28;20038;-70
2023/12/19 02:13:16;;;;;;;26.92;11.68;;;;;;;3.70;100.00;102248.06;4995562;28;20022;-70
2023/12/19 02:15:42;;;;;;;27.75;13.57;;;;;;;3.81;100.00;102249.28;5008194;28;20030;-71
2023/12/19 02:18:20;;;;;;;27.08;12.25;;;;;;;3.74;100.00;102251.31;5014749;28;20041;-70
2023/12/19 02:20:46;;;;;;;27.45;11.98;;;;;;;3.69;100.00;102243.00;4987996;28;20036;-70
2023/12/19 02:23:15;;;;;;;28.23;12.73;;;;;;;3.75;100.00;102236.75;5010194;28;20026;-71
2023/12/19 02:25:41;;;;;;;28.98;13.15;;;;;;;3.77;100.00;102235.78;5007460;28;20519;-70
2023/12/19 02:28:08;;;;;;;31.33;13.25;;;;;;;3.83;100.00;102232.91;5011030;28;20042;-70
2023/12/19 02:30:37;;;;;;;27.13;12.43;;;;;;;3.84;100.00;102234.56;5004658;28;20042;-70
2023/12/19 02:33:03;;;;;;;25.30;12.00;;;;;;;3.74;100.00;102229.97;5004043;28;20539;-70
2023/12/19 02:35:29;;;;;;;26.35;12.00;;;;;;;3.79;100.00;102220.31;5006557;28;20037;-71
2023/12/19 02:37:54;;;;;;;32.70;13.32;;;;;;;3.85;100.00;102209.72;5011136;28;20029;-70
2023/12/19 02:40:20;;;;;;;27.95;12.52;;;;;;;3.90;100.00;102215.47;5004441;28;20041;-70
2023/12/19 02:42:45;;;;;;;28.77;12.60;;;;;;;3.82;100.00;102203.00;5008764;28;20472;-71
2023/12/19 02:45:12;;;;;;;33.38;12.75;;;;;;;3.78;100.00;102196.38;5007063;28;20114;-70
2023/12/19 02:47:38;;;;;;;31.42;12.55;;;;;;;3.75;100.00;102193.13;4992362;28;20112;-70
2023/12/19 02:50:03;;;;;;;31.92;13.27;;;;;;;3.86;100.00;102199.38;5011868;28;20041;-70
2023/12/19 02:52:29;;;;;;;32.05;13.25;;;;;;;3.93;100.00;102187.06;5005191;28;20493;-70
2023/12/19 02:54:54;;;;;;;35.08;13.15;;;;;;;3.89;100.00;102193.25;5005832;28;20040;-70
2023/12/19 02:57:20;;;;;;;28.70;12.43;;;;;;;3.97;100.00;102185.97;5009118;28;20084;-70
2023/12/19 02:59:45;;;;;;;33.05;13.23;;;;;;;3.96;100.00;102189.47;5002748;28;20046;-70
2023/12/19 03:02:11;;;;;;;31.67;13.48;;;;;;;3.95;100.00;102182.66;5007547;28;20033;-71
2023/12/19 03:04:38;;;;;;;30.75;12.55;;;;;;;3.91;100.00;102178.59;5008621;28;20107;-70
2023/12/19 03:07:04;;;;;;;30.17;12.40;;;;;;;4.01;100.00;102168.69;5005609;28;20481;-70
2023/12/19 03:09:30;;;;;;;32.10;12.02;;;;;;;4.21;100.00;102162.53;5009932;28;20029;-70
2023/12/19 03:12:07;;;;;;;29.58;11.70;;;;;;;4.08;100.00;102160.59;5010445;28;20413;-71
2023/12/19 03:14:33;;;;;;;31.27;12.38;;;;;;;4.09;100.00;102151.16;5006911;28;20033;-70
2023/12/19 03:17:00;;;;;;;27.08;12.38;;;;;;;4.05;100.00;102158.19;5005429;28;20116;-71
2023/12/19 03:19:26;;;;;;;29.65;13.25;;;;;;;4.17;100.00;102156.72;5005530;28;20045;-70
2023/12/19 03:21:51;;;;;;;25.38;11.05;;;;;;;4.16;100.00;102159.34;5006915;28;20157;-71
2023/12/19 03:24:17;;;;;;;28.63;11.75;;;;;;;4.10;100.00;102153.63;5007401;28;20056;-71
2023/12/19 03:26:42;;;;;;;25.45;10.85;;;;;;;4.02;100.00;102144.69;5006196;28;20041;-70
2023/12/19 03:29:08;;;;;;;27.25;11.38;;;;;;;3.96;100.00;102145.03;5005893;28;20050;-71
2023/12/19 03:31:33;;;;;;;28.98;12.52;;;;;;;4.11;100.00;102146.78;5006887;28;20032;-70
2023/12/19 03:34:01;;;;;;;26.52;11.40;;;;;;;4.06;100.00;102141.06;5007959;28;20486;-70
2023/12/19 03:36:26;;;;;;;27.33;12.25;;;;;;;4.13;100.00;102141.56;5003331;28;20069;-70
2023/12/19 03:38:52;;;;;;;26.75;11.52;;;;;;;4.10;100.00;102145.09;5004350;28;20454;-70
2023/12/19 03:41:17;;;;;;;28.50;12.00;;;;;;;4.05;100.00;102141.94;5002745;28;20034;-71
2023/12/19 03:43:43;;;;;;;22.80;11.13;;;;;;;4.12;100.00;102142.47;5008119;28;20026;-70
2023/12/19 03:46:09;;;;;;;25.05;11.43;;;;;;;4.08;100.00;102146.94;5006516;28;20030;-71
2023/12/19 03:48:37;;;;;;;31.10;15.25;;;;;;;4.10;100.00;102139.97;5011314;28;20034;-70
2023/12/19 03:51:03;;;;;;;33.13;14.65;;;;;;;4.12;100.00;102127.88;5003140;28;20037;-71
2023/12/19 03:53:29;;;;;;;38.78;19.63;;;;;;;4.13;100.00;102132.13;5016791;28;20117;-71
2023/12/19 03:55:54;;;;;;;30.10;13.15;;;;;;;4.25;100.00;102125.50;5003608;28;20034;-70
2023/12/19 03:58:20;;;;;;;22.40;11.10;;;;;;;4.19;100.00;102118.13;5011551;28;20489;-71
2023/12/19 04:00:46;;;;;;;27.45;11.13;;;;;;;4.21;100.00;102106.03;4995401;28;20034;-71
2023/12/19 04:03:11;;;;;;;27.85;12.70;;;;;;;4.24;100.00;102108.44;5005530;28;20080;-71
2023/12/19 04:05:37;;;;;;;29.00;14.82;;;;;;;4.19;100.00;102102.72;5011662;28;20369;-71
2023/12/19 04:08:03;;;;;;;28.83;12.63;;;;;;;4.08;100.00;102090.44;5011130;28;20052;-71
2023/12/19 04:10:28;;;;;;;21.38;10.48;;;;;;;4.07;100.00;102097.34;5010374;28;20065;-71
2023/12/19 04:12:54;;;;;;;24.30;11.07;;;;;;;4.02;100.00;102085.66;5014627;28;20033;-72
2023/12/19 04:15:19;;;;;;;27.55;11.52;;;;;;;4.15;100.00;102088.41;5009395;28;20034;-71
2023/12/19 04:17:45;;;;;;;34.67;14.52;;;;;;;4.12;100.00;102075.72;5014749;28;20091;-71
2023/12/19 04:20:11;;;;;;;35.25;14.43;;;;;;;4.07;100.00;102071.66;4994213;28;20111;-71
2023/12/19 04:22:36;;;;;;;22.65;10.20;;;;;;;4.14;100.00;102063.63;5010000;28;20026;-71
2023/12/19 04:25:02;;;;;;;23.92;10.68;;;;;;;4.18;100.00;102067.66;5016518;28;20519;-71
2023/12/19 04:27:27;;;;;;;26.63;11.02;;;;;;;4.15;100.00;102060.16;5000999;28;20033;-71
2023/12/19 04:29:55;;;;;;;23.30;10.80;;;;;;;4.12;100.00;102065.44;5014051;28;20041;-71
2023/12/19 04:32:21;;;;;;;23.02;10.15;;;;;;;4.13;100.00;102056.84;5018396;28;20384;-71
2023/12/19 04:34:47;;;;;;;19.08;9.40;;;;;;;4.18;100.00;102052.25;4995198;28;20049;-71
2023/12/19 04:37:12;;;;;;;23.73;9.73;;;;;;;4.14;100.00;102048.22;5021704;28;20472;-70
2023/12/19 04:39:37;;;;;;;22.42;10.20;;;;;;;4.21;100.00;102045.22;5011306;28;20037;-71
2023/12/19 04:42:07;;;;;;;24.65;10.40;;;;;;;4.35;100.00;102041.91;5018266;28;20060;-70
2023/12/19 04:44:35;;;;;;;24.70;11.20;;;;;;;4.21;100.00;102036.69;5008862;28;20026;-71
2023/12/19 04:47:02;;;;;;;24.08;11.07;;;;;;;4.35;100.00;102041.06;5011927;28;20033;-71
2023/12/19 04:49:27;;;;;;;25.80;10.95;;;;;;;4.24;100.00;102044.25;5012684;28;20173;-70
2023/12/19 04:51:53;;;;;;;25.80;11.82;;;;;;;4.26;100.00;102032.97;5017644;28;20549;-71
2023/12/19 04:54:18;;;;;;;25.08;11.57;;;;;;;4.32;100.00;102029.25;5010709;28;20416;-71
2023/12/19 04:56:44;;;;;;;23.35;11.55;;;;;;;4.25;100.00;102023.59;5008214;28;20046;-70
2023/12/19 04:59:09;;;;;;;26.05;11.00;;;;;;;4.24;100.00;102019.38;5009740;28;20038;-70
2023/12/19 05:01:39;;;;;;;22.42;11.30;;;;;;;4.31;100.00;102025.00;5009422;28;20048;-70
2023/12/19 05:04:05;;;;;;;24.10;11.82;;;;;;;4.32;100.00;102016.41;4988541;28;20041;-71
2023/12/19 05:06:31;;;;;;;21.85;10.23;;;;;;;4.28;100.00;102000.31;5016611;28;20046;-70
2023/12/19 05:08:56;;;;;;;22.90;10.45;;;;;;;4.35;100.00;101994.84;5015641;28;20033;-70
2023/12/19 05:11:22;;;;;;;19.63;10.80;;;;;;;4.29;100.00;102007.13;5011769;28;20034;-70
2023/12/19 05:13:47;;;;;;;22.67;9.80;;;;;;;4.38;100.00;101986.97;5010905;28;20485;-71
2023/12/19 05:16:14;;;;;;;18.05;9.90;;;;;;;4.42;100.00;101993.59;5014821;28;20040;-71
2023/12/19 05:18:41;;;;;;;17.58;9.40;;;;;;;4.54;100.00;101984.34;5010969;28;20026;-71
2023/12/19 05:21:07;;;;;;;17.67;8.43;;;;;;;4.47;100.00;101964.16;5011848;28;20037;-70
2023/12/19 05:23:35;;;;;;;16.80;9.25;;;;;;;4.57;100.00;101956.75;5012446;28;20632;-71
2023/12/19 05:26:02;;;;;;;16.77;8.77;;;;;;;4.49;100.00;101953.81;5001946;28;20045;-70
2023/12/19 05:28:27;;;;;;;15.45;8.88;;;;;;;4.56;100.00;101946.56;5015769;28;20558;-71
2023/12/19 05:30:56;;;;;;;19.27;9.10;;;;;;;4.61;100.00;101941.97;5014713;28;20038;-71
2023/12/19 05:33:24;;;;;;;17.73;9.02;;;;;;;4.65;100.00;101940.88;5013493;28;20033;-70
2023/12/19 05:35:49;;;;;;;14.43;8.27;;;;;;;4.55;100.00;101935.47;5011070;28;20415;-70
2023/12/19 05:38:15;;;;;;;15.52;8.60;;;;;;;4.55;100.00;101947.47;5012823;28;20041;-70
2023/12/19 05:40:42;;;;;;;14.85;7.97;;;;;;;4.55;100.00;101934.63;5011528;28;20042;-70
2023/12/19 05:43:08;;;;;;;14.20;8.57;;;;;;;4.59;100.00;101939.50;5016009;28;20061;-70
2023/12/19 05:45:34;;;;;;;15.30;8.45;;;;;;;4.74;100.00;101929.25;5016553;28;20092;-73
2023/12/19 05:47:59;;;;;;;15.18;7.90;;;;;;;4.77;100.00;101945.31;5007504;28;20038;-72
2023/12/19 05:50:25;;;;;;;15.70;8.50;;;;;;;4.78;100.00;101946.94;5012383;28;20064;-71
2023/12/19 05:52:50;;;;;;;15.75;8.63;;;;;;;4.73;100.00;101933.56;5008690;28;20034;-71
2023/12/19 05:55:16;;;;;;;12.80;7.80;;;;;;;4.79;100.00;101940.09;5012438;28;20109;-72
2023/12/19 05:57:41;;;;;;;13.40;8.00;;;;;;;4.83;100.00;101924.38;5012800;28;20030;-71
2023/12/19 06:00:07;;;;;;;13.63;7.88;;;;;;;4.84;100.00;101928.63;5009526;28;20037;-72
2023/12/19 06:02:33;;;;;;;14.60;7.95;;;;;;;4.82;100.00;101935.59;5009079;28;20484;-71
2023/12/19 06:05:00;;;;;;;16.00;8.05;;;;;;;4.98;100.00;101935.50;4999364;28;20045;-72
2023/12/19 06:07:25;;;;;;;13.73;7.65;;;;;;;4.93;100.00;101946.97;5017131;28;20044;-71
2023/12/19 06:09:52;;;;;;;14.27;8.00;;;;;;;5.01;100.00;101948.19;5009564;28;20038;-71
2023/12/19 06:12:17;;;;;;;16.35;8.23;;;;;;;4.98;100.00;101943.22;5011570;28;20038;-71
2023/12/19 06:14:43;;;;;;;11.93;7.70;;;;;;;5.05;100.00;101956.53;5013316;28;20053;-72
2023/12/19 06:17:08;;;;;;;17.17;8.07;;;;;;;5.05;100.00;101954.78;5013158;28;20076;-72
2023/12/19 06:19:34;;;;;;;15.60;8.32;;;;;;;4.92;100.00;101953.06;5010791;28;20404;-73
2023/12/19 06:22:00;;;;;;;17.35;8.45;;;;;;;5.01;100.00;101948.19;5023136;28;20128;-71
2023/12/19 06:24:25;;;;;;;13.88;7.85;;;;;;;5.09;100.00;101944.34;5011592;28;20128;-71
2023/12/19 06:26:51;;;;;;;14.43;8.43;;;;;;;5.03;100.00;101940.38;5005507;28;20026;-71
2023/12/19 06:29:16;;;;;;;14.48;8.73;;;;;;;5.04;100.00;101936.88;5008945;28;20488;-71
2023/12/19 06:31:46;;;;;;;17.35;8.57;;;;;;;5.08;100.00;101935.78;5009311;28;20512;-71
2023/12/19 06:34:11;;;;;;;16.52;8.88;;;;;;;5.09;100.00;101934.88;5008392;28;20037;-71
2023/12/19 06:36:41;;;;;;;16.95;8.70;;;;;;;5.02;100.00;101918.97;5013533;28;20045;-71
2023/12/19 06:39:08;;;;;;;17.70;9.88;;;;;;;5.01;100.00;101916.47;5008376;28;20026;-71
2023/12/19 06:41:33;;;;;;;16.48;9.15;;;;;;;5.03;100.00;101925.78;5010954;28;20045;-71
2023/12/19 06:43:59;;;;;;;17.08;8.85;;;;;;;5.09;100.00;101924.56;5013829;28;20582;-72
2023/12/19 06:46:24;;;;;;;20.40;10.05;;;;;;;5.04;100.00;101906.03;5011778;28;20748;-72
2023/12/19 06:48:50;;;;;;;20.10;9.80;;;;;;;5.09;100.00;101893.72;5008128;28;20029;-71
2023/12/19 06:51:25;;;;;;;19.55;9.63;;;;;;;5.03;100.00;101888.97;5006426;28;20420;-72
2023/12/19 06:53:55;;;;;;;19.30;10.10;;;;;;;4.96;100.00;101895.38;5007921;28;20049;-72
2023/12/19 06:56:21;;;;;;;19.75;10.15;;;;;;;5.05;100.00;101898.22;5024524;28;20030;-71
2023/12/19 06:58:48;;;;;;;19.73;10.00;;;;;;;4.94;100.00;101879.25;4993102;28;20034;-72
2023/12/19 07:01:16;;;;;;;20.77;9.88;;;;;;;5.08;100.00;101863.78;5007311;28;20034;-73
2023/12/19 07:03:43;;;;;;;21.75;10.00;;;;;;;5.10;100.00;101867.06;5008462;28;20405;-72
2023/12/19 07:06:11;;;;;;;20.67;9.85;;;;;;;5.15;100.00;101871.97;5009875;28;20034;-71
2023/12/19 07:08:36;;;;;;;17.48;8.88;;;;;;;5.10;100.00;101874.78;5011782;28;20076;-72
2023/12/19 07:11:02;;;;;;;18.67;9.68;;;;;;;5.09;100.00;101869.78;5008742;28;20034;-73
2023/12/19 07:13:27;;;;;;;21.55;10.07;;;;;;;5.09;100.00;101868.00;5007892;28;20034;-71
2023/12/19 07:15:53;;;;;;;16.27;9.35;;;;;;;5.15;100.00;101870.19;5002984;28;20417;-71
2023/12/19 07:18:18;;;;;;;19.63;9.30;;;;;;;5.17;100.00;101870.94;5011458;28;20025;-72
2023/12/19 07:20:44;;;;;;;22.23;8.77;;;;;;;5.13;100.00;101864.31;5007166;28;20630;-72
2023/12/19 07:23:10;;;;;;;22.48;9.27;;;;;;;5.19;100.00;101874.22;5012652;28;20543;-72
2023/12/19 07:25:35;;;;;;;16.10;7.95;;;;;;;5.21;100.00;101872.38;5009400;28;20049;-71
2023/12/19 07:28:02;;;;;;;22.95;8.98;;;;;;;5.11;100.00;101863.59;5011460;28;20060;-71
2023/12/19 07:30:28;;;;;;;19.50;8.95;;;;;;;5.15;100.00;101856.53;5016782;28;20099;-73
2023/12/19 07:32:53;;;;;;;16.58;8.52;;;;;;;5.25;100.00;101862.75;5012784;28;20404;-72
2023/12/19 07:35:19;;;;;;;17.45;8.45;;;;;;;5.28;100.00;101856.59;5009299;28;20070;-71
2023/12/19 07:37:48;;;;;;;19.35;9.80;;;;;;;5.22;100.00;101858.63;5012556;28;20045;-72
2023/12/19 07:40:13;;;;;;;16.15;7.97;;;;;;;5.34;100.00;101861.34;5010982;28;20519;-72
2023/12/19 07:42:40;;;;;;;18.70;7.90;;;;;;;5.34;100.00;101856.22;5015363;28;20039;-72
2023/12/19 07:45:06;;;;;;;18.90;7.25;;;;;;;5.32;100.00;101851.16;5012853;28;20049;-72
2023/12/19 07:47:32;;;;;;;17.00;7.75;;;;;;;5.36;100.00;101852.59;5013388;28;20432;-71
2023/12/19 07:49:58;;;;;;;18.60;8.55;;;;;;;5.44;100.00;101849.56;5019465;28;20041;-71
2023/12/19 07:52:23;;;;;;;19.08;7.90;;;;;;;5.38;100.00;101868.78;5013044;28;20026;-71
2023/12/19 07:54:49;;;;;;;17.95;7.55;;;;;;;5.37;100.00;101867.13;5014601;28;20129;-72
2023/12/19 07:57:15;;;;;;;17.13;8.02;;;;;;;5.42;100.00;101849.63;5012640;28;20041;-72
2023/12/19 07:59:41;;;;;;;15.57;7.40;;;;;;;5.32;100.00;101858.06;5007712;28;20030;-72
2023/12/19 08:02:07;;;;;;;20.42;8.82;;;;;;;5.35;100.00;101855.28;5015171;28;20033;-72
2023/12/19 08:04:34;;;;;;;20.08;7.80;;;;;;;5.41;100.00;101857.47;5014511;28;20044;-72
2023/12/19 08:06:59;;;;;;;15.60;7.75;;;;;;;5.51;100.00;101847.44;4995047;28;20056;-72
2023/12/19 08:09:26;;;;;;;18.17;8.18;;;;;;;5.43;100.00;101860.78;5009658;28;20065;-72
2023/12/19 08:11:52;;;;;;;17.77;8.38;;;;;;;5.55;100.00;101870.28;5014350;28;20649;-71
2023/12/19 08:14:17;;;;;;;22.60;7.38;;;;;;;5.56;100.00;101861.66;5010895;28;20021;-72
2023/12/19 08:16:42;;;;;;;18.20;7.47;;;;;;;5.54;100.00;101858.34;5005198;28;20133;-73
2023/12/19 08:19:08;;;;;;;17.92;7.85;;;;;;;5.50;100.00;101851.75;5010125;28;20030;-72
2023/12/19 08:21:34;;;;;;;16.33;7.40;;;;;;;5.63;100.00;101847.47;5002880;28;20046;-73
2023/12/19 08:24:00;;;;;;;15.48;6.80;;;;;;;5.66;100.00;101839.53;5020281;28;20034;-72
2023/12/19 08:26:25;;;;;;;12.90;6.90;;;;;;;5.61;100.00;101843.34;5008529;28;20096;-71
2023/12/19 08:28:51;;;;;;;17.88;6.90;;;;;;;5.61;100.00;101835.63;5011196;28;20029;-72
2023/12/19 08:31:16;;;;;;;19.88;7.35;;;;;;;5.71;100.00;101828.13;5012988;28;20463;-72
2023/12/19 08:33:43;;;;;;;21.08;8.38;;;;;;;5.71;100.00;101828.13;5012220;28;20402;-71
2023/12/19 08:36:09;;;;;;;14.07;6.00;;;;;;;5.71;100.00;101828.97;5010943;28;20417;-72
2023/12/19 08:38:34;;;;;;;12.93;6.97;;;;;;;5.72;100.00;101832.34;5011251;28;20041;-71
2023/12/19 08:41:00;;;;;;;11.85;6.20;;;;;;;5.78;100.00;101813.94;5014300;28;20049;-73
2023/12/19 08:43:28;;;;;;;13.23;6.38;;;;;;;5.73;100.00;101808.28;5010519;28;20041;-71
2023/12/19 08:45:53;;;;;;;14.40;6.03;;;;;;;5.80;100.00;101804.34;5010500;28;20413;-73
2023/12/19 08:48:19;;;;;;;13.18;6.13;;;;;;;5.82;100.00;101803.34;5019198;28;20042;-72
2023/12/19 08:50:45;;;;;;;11.25;5.20;;;;;;;5.85;100.00;101802.31;5012963;28;20097;-72
2023/12/19 08:53:12;;;;;;;9.82;5.53;;;;;;;5.83;100.00;101792.13;5008853;28;20029;-71
2023/12/19 08:55:39;;;;;;;14.85;5.95;;;;;;;5.83;100.00;101793.88;5012335;28;20059;-72
2023/12/19 08:58:04;;;;;;;16.70;6.10;;;;;;;5.90;100.00;101797.69;5008530;28;20129;-71
2023/12/19 09:00:30;;;;;;;20.60;5.57;;;;;;;5.87;100.00;101807.38;4996345;28;20038;-71
2023/12/19 09:02:55;;;;;;;22.20;5.60;;;;;;;5.87;100.00;101808.19;4991831;28;20033;-71
2023/12/19 09:05:21;;;;;;;12.20;5.55;;;;;;;5.82;100.00;101802.50;5008639;28;20041;-71
2023/12/19 09:07:47;;;;;;;11.35;4.50;;;;;;;5.89;100.00;101792.66;5013562;28;20067;-71
2023/12/19 09:10:13;;;;;;;12.98;5.05;;;;;;;5.83;100.00;101783.56;5011729;28;20060;-72
2023/12/19 09:12:39;;;;;;;14.63;4.93;;;;;;;5.99;100.00;101773.94;5011887;28;20047;-71
2023/12/19 09:15:06;;;;;;;14.02;5.68;;;;;;;5.97;100.00;101773.25;5012904;28;20041;-71
2023/12/19 09:17:32;;;;;;;10.65;4.93;;;;;;;5.93;100.00;101776.06;5010918;28;20060;-71
2023/12/19 09:19:59;;;;;;;11.57;4.72;;;;;;;6.02;100.00;101768.59;5010799;28;20619;-72
2023/12/19 09:22:25;;;;;;;12.40;4.50;;;;;;;5.99;100.00;101766.22;5013076;28;20048;-71
2023/12/19 09:24:51;;;;;;;14.25;4.82;;;;;;;6.07;100.00;101758.00;5013486;28;20037;-72
2023/12/19 09:27:16;;;;;;;9.07;4.20;;;;;;;6.11;100.00;101748.31;5012158;28;20497;-71
2023/12/19 09:29:42;;;;;;;15.77;4.57;;;;;;;6.17;100.00;101746.13;5012026;28;20037;-71
2023/12/19 09:32:07;;;;;;;10.13;4.40;;;;;;;6.13;100.00;101747.25;5010224;28;20053;-70
2023/12/19 09:34:34;;;;;;;16.70;4.25;;;;;;;6.30;100.00;101750.47;5009128;28;20034;-72
2023/12/19 09:36:59;;;;;;;9.35;4.20;;;;;;;6.26;100.00;101756.75;5011517;28;20044;-70
2023/12/19 09:39:25;;;;;;;12.02;4.53;;;;;;;6.30;100.00;101748.69;5009407;28;20042;-72
2023/12/19 09:41:50;;;;;;;9.32;3.90;;;;;;;6.36;100.00;101737.97;5009291;28;20030;-71
2023/12/19 09:44:16;;;;;;;10.02;4.20;;;;;;;6.47;100.00;101733.84;5008305;28;20046;-72
2023/12/19 09:46:41;;;;;;;6.50;3.75;;;;;;;6.45;100.00;101733.94;5007679;28;20048;-71
2023/12/19 09:49:10;;;;;;;8.43;3.38;;;;;;;6.46;100.00;101733.03;5006948;28;20511;-71
2023/12/19 09:51:42;;;;;;;7.43;3.50;;;;;;;6.51;100.00;101725.78;5008632;28;20097;-72
2023/12/19 09:54:08;;;;;;;15.05;4.97;;;;;;;6.64;100.00;101746.38;5012347;28;20034;-71
2023/12/19 09:56:34;;;;;;;9.75;3.72;;;;;;;6.56;100.00;101746.91;5006937;28;20496;-72
2023/12/19 09:59:03;;;;;;;8.07;3.33;;;;;;;6.48;100.00;101731.16;5006914;28;20068;-73
2023/12/19 10:01:28;;;;;;;12.65;4.07;;;;;;;6.55;100.00;101726.38;5009675;28;20029;-71
2023/12/19 10:03:55;;;;;;;12.20;3.67;;;;;;;6.53;100.00;101716.19;5010979;28;20092;-71
2023/12/19 10:06:24;;;;;;;7.72;3.25;;;;;;;6.47;100.00;101721.78;5008502;28;20489;-71
2023/12/19 10:08:53;;;;;;;8.05;3.20;;;;;;;6.47;100.00;101720.97;5009172;28;20072;-71
2023/12/19 10:11:21;;;;;;;7.07;3.58;;;;;;;6.63;100.00;101716.38;5024129;28;20038;-71
2023/12/19 10:13:47;;;;;;;8.50;3.42;;;;;;;6.45;100.00;101715.91;5008880;28;20481;-72
2023/12/19 10:16:17;;;;;;;7.82;4.10;;;;;;;6.51;100.00;101712.06;5009219;28;20041;-72
2023/12/19 10:18:44;;;;;;;10.95;3.50;;;;;;;6.37;100.00;101707.91;5023331;28;20052;-73
2023/12/19 10:21:11;;;;;;;11.57;4.07;;;;;;;6.40;100.00;101716.22;5010433;28;20263;-72
2023/12/19 10:23:37;;;;;;;9.13;4.55;;;;;;;6.40;100.00;101713.66;5008449;28;20045;-71
2023/12/19 10:26:03;;;;;;;20.40;4.47;;;;;;;6.37;100.00;101700.16;5007912;28;20041;-71
2023/12/19 10:28:30;;;;;;;14.02;3.75;;;;;;;6.32;100.00;101705.63;5013791;28;20033;-72
2023/12/19 10:31:10;;;;;;;11.20;4.28;;;;;;;6.39;100.00;101711.19;5009758;28;20091;-72
2023/12/19 10:33:43;;;;;;;9.02;3.67;;;;;;;6.33;100.00;101712.44;4990770;28;20034;-72
2023/12/19 10:36:21;;;;;;;10.02;3.95;;;;;;;6.30;100.00;101699.75;5023908;28;20038;-71
2023/12/19 10:38:47;;;;;;;9.65;4.38;;;;;;;6.23;100.00;101706.25;5011926;28;20041;-71
2023/12/19 10:41:25;;;;;;;12.63;4.13;;;;;;;6.24;100.00;101695.03;4989427;28;20042;-72
2023/12/19 10:43:53;;;;;;;10.82;4.40;;;;;;;6.21;100.00;101682.34;5008650;28;20508;-72
2023/12/19 10:46:24;;;;;;;12.50;4.25;;;;;;;6.25;100.00;101683.78;5009992;28;20037;-72
2023/12/19 10:48:50;;;;;;;9.73;4.38;;;;;;;6.19;100.00;101679.88;5012834;28;20033;-71
2023/12/19 10:51:23;;;;;;;9.07;4.32;;;;;;;6.19;100.00;101679.88;5008328;28;20038;-71
2023/12/19 10:53:58;;;;;;;10.98;4.45;;;;;;;6.18;100.00;101656.84;5011655;28;20033;-73
2023/12/19 10:56:25;;;;;;;15.05;4.47;;;;;;;6.19;100.00;101651.53;5006873;28;20037;-73
2023/12/19 10:58:58;;;;;;;16.70;5.85;;;;;;;6.18;100.00;101643.97;5010863;28;20038;-74
2023/12/19 11:01:27;;;;;;;11.32;4.60;;;;;;;6.18;100.00;101646.53;5007527;28;20053;-73
2023/12/19 11:03:59;;;;;;;12.93;6.95;;;;;;;6.17;100.00;101629.41;5007709;28;20108;-73
2023/12/19 11:06:31;;;;;;;25.50;11.50;;;;;;;6.15;100.00;101628.69;5011016;28;20033;-74
2023/12/19 11:09:04;;;;;;;14.18;7.20;;;;;;;6.08;100.00;101624.91;5007649;28;20107;-73
2023/12/19 11:11:37;;;;;;;23.95;10.88;;;;;;;6.16;100.00;101617.47;4991171;28;20029;-73